createdAt,value
2018-10-21T00:01:07.963Z,37.90
2018-10-21T00:03:36.887Z,39.00
2018-10-21T00:06:05.823Z,39.80
2018-10-21T00:08:34.739Z,39.70
2018-10-21T00:11:03.688Z,40.10
2018-10-21T00:13:33.110Z,39.70
2018-10-21T00:16:02.042Z,39.70
2018-10-21T00:18:30.938Z,39.70
2018-10-21T00:20:59.949Z,39.70
2018-10-21T00:23:28.797Z,39.70
2018-10-21T00:25:57.687Z,40.10
2018-10-21T00:28:26.593Z,40.60
2018-10-21T00:30:55.530Z,42.00
2018-10-21T00:33:24.477Z,42.30
2018-10-21T00:35:53.338Z,43.50
2018-10-21T00:38:22.244Z,43.20
2018-10-21T00:40:51.243Z,43.80
2018-10-21T00:43:20.191Z,44.10
2018-10-21T00:45:49.098Z,43.70
2018-10-21T00:48:18.053Z,43.50
2018-10-21T00:50:47.023Z,44.00
2018-10-21T00:53:15.965Z,44.20
2018-10-21T00:55:44.947Z,44.10
2018-10-21T00:58:13.941Z,44.10
2018-10-21T01:00:43.811Z,44.80
2018-10-21T01:03:12.722Z,44.50
2018-10-21T01:05:41.648Z,44.90
2018-10-21T01:08:10.554Z,45.50
2018-10-21T01:10:39.668Z,46.50
2018-10-21T01:13:08.588Z,46.70
2018-10-21T01:15:37.523Z,46.30
2018-10-21T01:18:06.886Z,46.20
2018-10-21T01:20:35.891Z,46.20
2018-10-21T01:23:04.890Z,46.10
2018-10-21T01:25:33.866Z,47.70
2018-10-21T01:28:02.832Z,47.00
2018-10-21T01:30:31.689Z,48.20
2018-10-21T01:33:00.646Z,48.80
2018-10-21T01:35:29.683Z,49.60
2018-10-21T01:37:58.704Z,49.80
2018-10-21T01:40:31.918Z,50.10
2018-10-21T01:43:01.131Z,49.80
2018-10-21T01:45:30.039Z,49.60
2018-10-21T01:48:00.056Z,49.10
2018-10-21T01:50:28.992Z,49.30
2018-10-21T01:52:58.926Z,49.30
2018-10-21T01:55:27.964Z,48.90
2018-10-21T01:57:58.055Z,48.80
2018-10-21T02:00:27.646Z,48.60
2018-10-21T02:02:57.275Z,49.10
2018-10-21T02:05:26.362Z,49.00
2018-10-21T02:07:55.667Z,49.10
2018-10-21T02:10:24.596Z,48.70
2018-10-21T02:12:53.534Z,49.40
2018-10-21T02:15:22.567Z,49.40
2018-10-21T02:17:51.463Z,49.20
2018-10-21T02:20:21.059Z,48.90
2018-10-21T02:22:50.322Z,48.70
2018-10-21T02:25:19.302Z,48.70
2018-10-21T02:27:49.034Z,48.70
2018-10-21T02:30:19.349Z,48.80
2018-10-21T02:32:49.583Z,48.50
2018-10-21T02:35:18.980Z,49.10
2018-10-21T02:37:48.524Z,50.10
2018-10-21T02:41:40.933Z,50.70
2018-10-21T02:44:12.262Z,51.10
2018-10-21T02:46:41.680Z,50.90
2018-10-21T02:49:12.415Z,51.70
2018-10-21T02:51:41.342Z,52.90
2018-10-21T02:54:10.698Z,51.70
2018-10-21T02:56:39.642Z,51.70
2018-10-21T02:59:08.495Z,51.70
2018-10-21T03:01:37.419Z,51.60
2018-10-21T03:04:06.319Z,51.60
2018-10-21T03:06:35.228Z,52.70
2018-10-21T03:09:05.633Z,52.90
2018-10-21T03:11:34.590Z,52.40
2018-10-21T03:14:04.027Z,51.70
2018-10-21T03:16:32.914Z,52.30
2018-10-21T03:19:01.799Z,52.20
2018-10-21T03:21:30.837Z,52.60
2018-10-21T03:23:59.683Z,54.90
2018-10-21T03:26:28.551Z,56.20
2018-10-21T03:28:58.466Z,56.00
2018-10-21T03:31:27.399Z,55.50
2018-10-21T03:33:56.454Z,54.60
2018-10-21T03:36:25.222Z,53.70
2018-10-21T03:45:48.668Z,53.40
2018-10-21T03:48:17.518Z,53.30
2018-10-21T03:50:46.419Z,53.40
2018-10-21T03:53:15.298Z,53.80
2018-10-21T03:55:44.598Z,53.80
2018-10-21T03:58:13.644Z,54.00
2018-10-21T04:00:42.582Z,55.10
2018-10-21T04:03:11.490Z,55.00
2018-10-21T04:05:40.379Z,55.20
2018-10-21T04:08:09.294Z,55.60
2018-10-21T04:10:38.238Z,56.40
2018-10-21T04:13:07.200Z,56.60
2018-10-21T04:15:36.151Z,55.80
2018-10-21T04:18:05.104Z,54.70
2018-10-21T04:20:34.030Z,54.40
2018-10-21T04:23:03.670Z,55.10
2018-10-21T04:25:33.821Z,55.70
2018-10-21T04:28:03.583Z,56.80
2018-10-21T04:30:33.533Z,55.10
2018-10-21T04:33:23.764Z,55.20
2018-10-21T04:35:52.655Z,56.00
2018-10-21T04:39:45.427Z,55.90
2018-10-21T04:42:14.298Z,55.00
2018-10-21T04:44:43.202Z,55.60
2018-10-21T04:47:12.094Z,55.60
2018-10-21T04:49:40.971Z,55.00
2018-10-21T04:52:09.871Z,54.50
2018-10-21T04:54:38.798Z,53.60
2018-10-21T04:57:08.403Z,52.70
2018-10-21T04:59:38.531Z,51.00
2018-10-21T05:02:07.372Z,52.90
2018-10-21T05:04:36.245Z,51.20
2018-10-21T05:07:05.154Z,51.30
2018-10-21T05:09:34.087Z,51.40
2018-10-21T05:12:03.010Z,51.80
2018-10-21T05:14:32.854Z,52.30
2018-10-21T05:17:01.758Z,52.80
2018-10-21T05:19:30.847Z,53.00
2018-10-21T05:21:59.707Z,53.30
2018-10-21T05:24:28.572Z,53.60
2018-10-21T05:26:57.558Z,53.40
2018-10-21T05:29:26.469Z,53.40
2018-10-21T05:31:55.387Z,55.40
2018-10-21T05:34:24.226Z,54.70
2018-10-21T05:36:53.146Z,54.80
2018-10-21T05:39:22.092Z,54.50
2018-10-21T05:41:50.922Z,54.40
2018-10-21T05:44:19.746Z,54.60
2018-10-21T05:46:50.825Z,54.50
2018-10-21T05:49:19.578Z,54.50
2018-10-21T05:51:49.864Z,54.30
2018-10-21T05:54:19.535Z,54.80
2018-10-21T05:56:49.810Z,54.60
2018-10-21T05:59:18.954Z,54.60
2018-10-21T06:01:49.104Z,55.00
2018-10-21T06:04:18.638Z,56.00
2018-10-21T06:06:47.567Z,56.20
2018-10-21T06:09:16.422Z,57.30
2018-10-21T06:11:45.247Z,57.70
2018-10-21T06:14:14.119Z,54.70
2018-10-21T06:16:48.420Z,57.30
2018-10-21T06:19:20.732Z,59.40
2018-10-21T06:21:49.616Z,60.30
2018-10-21T06:24:18.459Z,61.30
2018-10-21T06:26:47.429Z,61.30
2018-10-21T06:31:25.059Z,60.80
2018-10-21T06:33:53.945Z,61.80
2018-10-21T06:36:23.215Z,61.80
2018-10-21T06:38:52.047Z,62.70
2018-10-21T06:41:21.738Z,61.70
2018-10-21T06:43:50.562Z,63.40
2018-10-21T06:46:19.479Z,62.50
2018-10-21T06:48:48.404Z,62.00
2018-10-21T06:51:17.394Z,60.90
2018-10-21T06:53:46.242Z,59.60
2018-10-21T06:56:15.236Z,58.70
2018-10-21T06:58:44.079Z,58.20
2018-10-21T07:01:12.930Z,57.40
2018-10-21T07:03:41.807Z,55.60
2018-10-21T07:06:16.082Z,54.20
2018-10-21T07:08:45.339Z,54.70
2018-10-21T07:11:14.382Z,55.80
2018-10-21T07:13:43.387Z,55.50
2018-10-21T07:16:12.540Z,54.70
2018-10-21T07:18:41.988Z,54.30
2018-10-21T07:21:10.992Z,54.30
2018-10-21T07:23:40.258Z,54.10
2018-10-21T07:26:09.195Z,53.30
2018-10-21T07:28:38.231Z,52.20
2018-10-21T07:31:07.109Z,52.30
2018-10-21T07:33:36.138Z,52.50
2018-10-21T07:36:05.499Z,52.40
2018-10-21T07:38:34.375Z,52.70
2018-10-21T07:41:03.236Z,52.70
2018-10-21T07:43:32.194Z,51.80
2018-10-21T07:46:01.190Z,51.30
2018-10-21T07:48:30.095Z,50.00
2018-10-21T07:50:59.098Z,49.30
2018-10-21T07:53:28.054Z,50.20
2018-10-21T07:55:56.907Z,49.50
2018-10-21T07:58:25.774Z,48.20
2018-10-21T08:00:54.636Z,48.20
2018-10-21T08:03:23.674Z,48.30
2018-10-21T08:06:31.244Z,47.60
2018-10-21T08:09:00.162Z,46.20
2018-10-21T08:11:29.054Z,46.00
2018-10-21T08:13:58.006Z,45.60
2018-10-21T08:16:26.938Z,45.50
2018-10-21T08:18:55.827Z,46.60
2018-10-21T08:21:25.088Z,44.40
2018-10-21T08:23:54.035Z,43.60
2018-10-21T08:26:22.962Z,44.00
2018-10-21T08:28:51.955Z,41.90
2018-10-21T08:31:20.875Z,41.90
2018-10-21T08:33:49.806Z,41.70
2018-10-21T08:36:18.706Z,42.80
2018-10-21T08:38:47.670Z,40.80
2018-10-21T08:41:16.579Z,40.10
2018-10-21T08:43:45.430Z,40.30
2018-10-21T08:46:14.439Z,40.10
2018-10-21T08:48:43.403Z,39.10
2018-10-21T08:51:12.454Z,37.50
2018-10-21T08:53:41.299Z,35.70
2018-10-21T08:56:10.175Z,34.50
2018-10-21T08:58:39.212Z,33.90
2018-10-21T09:01:08.182Z,34.60
2018-10-21T09:03:37.351Z,34.10
2018-10-21T09:06:06.259Z,30.90
2018-10-21T09:08:35.103Z,30.60
2018-10-21T09:11:04.153Z,29.30
2018-10-21T09:13:32.958Z,26.90
2018-10-21T09:16:01.829Z,26.90
2018-10-21T09:18:30.848Z,26.70
2018-10-21T09:20:59.706Z,24.40
2018-10-21T09:23:28.619Z,23.20
2018-10-21T09:25:57.462Z,22.30
2018-10-21T09:28:26.404Z,22.90
2018-10-21T09:30:55.291Z,22.70
2018-10-21T09:33:24.278Z,20.40
2018-10-21T09:35:53.194Z,20.40
2018-10-21T09:38:22.130Z,19.90
2018-10-21T09:40:51.010Z,18.10
2018-10-21T09:43:19.942Z,18.10
2018-10-21T09:45:48.814Z,17.30
2018-10-21T09:48:17.728Z,17.60
2018-10-21T09:50:46.646Z,16.30
2018-10-21T09:53:15.581Z,16.30
2018-10-21T09:55:44.458Z,15.80
2018-10-21T09:58:13.449Z,15.10
2018-10-21T10:00:47.718Z,15.30
2018-10-21T10:03:16.647Z,14.80
2018-10-21T10:05:45.559Z,12.40
2018-10-21T10:08:14.510Z,12.20
2018-10-21T10:10:43.474Z,13.60
2018-10-21T10:13:12.401Z,12.40
2018-10-21T10:15:41.281Z,12.40
2018-10-21T10:18:10.206Z,12.50
2018-10-21T10:20:39.066Z,12.60
2018-10-21T10:23:08.024Z,11.90
2018-10-21T10:25:36.965Z,11.70
2018-10-21T10:28:06.936Z,12.50
2018-10-21T10:30:35.917Z,11.80
2018-10-21T10:33:04.955Z,11.10
2018-10-21T10:35:33.917Z,10.10
2018-10-21T10:38:02.870Z,9.90
2018-10-21T10:40:31.737Z,8.40
2018-10-21T10:43:00.632Z,8.40
2018-10-21T10:45:29.538Z,8.20
2018-10-21T10:47:58.423Z,7.80
2018-10-21T10:50:27.314Z,6.20
2018-10-21T10:52:56.281Z,6.20
2018-10-21T10:55:29.335Z,6.40
2018-10-21T10:57:58.278Z,6.90
2018-10-21T11:00:27.166Z,6.40
2018-10-21T11:02:56.122Z,5.80
2018-10-21T11:05:25.027Z,4.80
2018-10-21T11:07:53.922Z,4.70
2018-10-21T11:10:22.870Z,4.20
2018-10-21T11:12:51.807Z,4.20
2018-10-21T11:15:20.630Z,3.10
2018-10-21T11:17:49.524Z,3.00
2018-10-21T11:20:18.423Z,3.00
2018-10-21T11:22:47.293Z,2.90
2018-10-21T11:25:16.230Z,2.20
2018-10-21T11:27:45.179Z,1.30
2018-10-21T11:30:14.064Z,1.00
2018-10-21T11:32:42.968Z,1.00
2018-10-21T11:35:11.823Z,1.00
2018-10-21T11:37:40.759Z,1.00
2018-10-21T11:40:09.639Z,1.00
2018-10-21T11:42:38.519Z,1.00
2018-10-21T11:45:07.661Z,1.00
2018-10-21T11:47:36.610Z,1.00
2018-10-21T11:50:06.291Z,1.00
2018-10-21T11:52:35.277Z,1.00
2018-10-21T11:55:04.169Z,1.00
2018-10-21T11:57:32.953Z,1.00
2018-10-21T12:00:01.880Z,1.00
2018-10-21T12:02:30.752Z,1.00
2018-10-21T12:04:59.652Z,1.00
2018-10-21T12:07:28.558Z,1.00
2018-10-21T12:09:57.557Z,1.00
2018-10-21T12:12:26.376Z,1.00
2018-10-21T12:14:55.279Z,1.00
2018-10-21T12:17:25.543Z,1.00
2018-10-21T12:19:54.438Z,1.00
2018-10-21T12:22:23.448Z,1.00
2018-10-21T12:24:52.343Z,1.00
2018-10-21T12:27:21.378Z,1.00
2018-10-21T12:29:50.347Z,1.00
2018-10-21T12:32:19.271Z,1.00
2018-10-21T12:34:48.150Z,1.00
2018-10-21T12:37:17.786Z,1.00
2018-10-21T12:39:46.646Z,1.00
2018-10-21T12:42:15.587Z,1.00
2018-10-21T12:44:44.559Z,1.00
2018-10-21T12:47:13.515Z,1.00
2018-10-21T12:49:42.332Z,1.00
2018-10-21T12:52:11.348Z,1.00
2018-10-21T12:54:40.359Z,1.00
2018-10-21T12:57:09.293Z,1.00
2018-10-21T12:59:38.210Z,1.00
2018-10-21T13:02:07.121Z,1.00
2018-10-21T13:04:36.050Z,1.00
2018-10-21T13:07:05.305Z,1.00
2018-10-21T13:09:34.190Z,1.00
2018-10-21T13:12:03.134Z,1.00
2018-10-21T13:14:32.046Z,1.00
2018-10-21T13:17:00.981Z,1.00
2018-10-21T13:26:24.420Z,1.00
2018-10-21T13:28:53.342Z,1.00
2018-10-21T13:31:22.217Z,1.00
2018-10-21T13:33:51.110Z,1.00
2018-10-21T13:36:20.009Z,1.00
2018-10-21T13:38:48.877Z,1.00
2018-10-21T13:41:17.683Z,1.00
2018-10-21T13:43:47.338Z,1.00
2018-10-21T13:46:16.319Z,1.00
2018-10-21T13:48:45.158Z,1.00
2018-10-21T13:51:15.070Z,1.00
2018-10-21T13:53:43.930Z,1.00
2018-10-21T13:56:12.841Z,1.00
2018-10-21T13:58:41.726Z,1.00
2018-10-21T14:01:10.792Z,1.00
2018-10-21T14:03:39.511Z,1.00
2018-10-21T14:06:08.395Z,1.00
2018-10-21T14:08:37.374Z,1.00
2018-10-21T14:11:06.288Z,1.00
2018-10-21T14:13:35.178Z,1.00
2018-10-21T14:16:04.116Z,1.00
2018-10-21T14:18:32.916Z,1.00
2018-10-21T14:21:02.332Z,1.00
2018-10-21T14:23:31.539Z,1.00
2018-10-21T14:26:00.458Z,1.00
2018-10-21T14:28:29.406Z,1.00
2018-10-21T14:32:01.617Z,1.00
2018-10-21T14:34:30.509Z,1.00
2018-10-21T14:36:59.556Z,1.00
2018-10-21T14:39:28.676Z,1.00
2018-10-21T14:41:57.660Z,1.00
2018-10-21T14:44:26.452Z,1.00
2018-10-21T14:46:55.349Z,1.00
2018-10-21T14:49:24.270Z,1.00
2018-10-21T14:51:53.253Z,1.00
2018-10-21T14:54:22.139Z,1.00
2018-10-21T14:56:51.081Z,1.00
2018-10-21T14:59:19.919Z,1.00
2018-10-21T15:01:48.790Z,1.00
2018-10-21T15:04:17.789Z,1.00
2018-10-21T15:06:46.728Z,1.00
2018-10-21T15:09:15.690Z,1.00
2018-10-21T15:11:44.547Z,1.00
2018-10-21T15:14:13.519Z,1.00
2018-10-21T15:16:42.339Z,1.00
2018-10-21T15:19:11.227Z,1.00
2018-10-21T15:21:40.156Z,1.00
2018-10-21T15:24:08.986Z,1.00
2018-10-21T15:26:38.050Z,1.00
2018-10-21T15:29:07.283Z,1.00
2018-10-21T15:31:36.194Z,1.00
2018-10-21T15:34:05.153Z,1.00
2018-10-21T15:36:33.943Z,1.00
2018-10-21T15:39:02.850Z,1.00
2018-10-21T15:41:31.744Z,1.00
2018-10-21T15:44:00.656Z,1.00
2018-10-21T15:46:29.458Z,1.20
2018-10-21T15:48:58.517Z,2.00
2018-10-21T15:51:27.394Z,3.10
2018-10-21T15:53:56.295Z,3.30
2018-10-21T15:56:25.187Z,3.80
2018-10-21T15:58:54.013Z,4.30
2018-10-21T16:01:22.863Z,4.80
2018-10-21T16:03:51.755Z,5.50
2018-10-21T16:06:20.656Z,6.30
2018-10-21T16:08:49.510Z,6.90
2018-10-21T16:11:18.432Z,8.10
2018-10-21T16:13:47.361Z,8.60
2018-10-21T16:16:18.142Z,9.20
2018-10-21T16:18:49.766Z,10.50
2018-10-21T16:21:18.682Z,10.80
2018-10-21T16:23:47.583Z,10.80
2018-10-21T16:26:16.492Z,11.40
2018-10-21T16:28:45.360Z,12.50
2018-10-21T16:31:14.315Z,13.30
2018-10-21T16:33:43.220Z,13.30
2018-10-21T16:36:12.130Z,12.70
2018-10-21T16:38:41.034Z,13.60
2018-10-21T16:41:09.870Z,14.10
2018-10-21T16:43:38.815Z,14.50
2018-10-21T16:46:07.719Z,15.10
2018-10-21T16:48:36.571Z,15.40
2018-10-21T16:51:06.283Z,15.90
2018-10-21T16:53:35.235Z,16.00
2018-10-21T16:56:04.157Z,16.30
2018-10-21T16:58:33.078Z,16.40
2018-10-21T17:01:02.023Z,16.70
2018-10-21T17:03:31.909Z,16.90
2018-10-21T17:06:01.423Z,17.30
2018-10-21T17:08:30.362Z,18.60
2018-10-21T17:10:59.369Z,18.50
2018-10-21T17:13:28.279Z,18.30
2018-10-21T17:15:57.139Z,18.30
2018-10-21T17:18:26.178Z,18.30
2018-10-21T17:20:55.154Z,18.30
2018-10-21T17:23:24.114Z,18.30
2018-10-21T17:25:53.058Z,18.60
2018-10-21T17:28:22.059Z,19.00
2018-10-21T17:30:50.997Z,19.20
2018-10-21T17:33:19.930Z,19.30
2018-10-21T17:35:48.848Z,19.40
2018-10-21T17:38:17.922Z,19.60
2018-10-21T17:40:46.814Z,19.80
2018-10-21T17:43:15.815Z,19.90
2018-10-21T17:45:44.662Z,20.60
2018-10-21T17:48:13.560Z,20.80
2018-10-21T17:50:42.383Z,21.10
2018-10-21T17:53:12.360Z,21.10
2018-10-21T17:55:41.225Z,21.10
2018-10-21T17:58:10.221Z,22.50
2018-10-21T18:00:39.886Z,22.20
2018-10-21T18:03:10.902Z,21.70
2018-10-21T18:05:39.886Z,22.70
2018-10-21T18:08:08.869Z,23.30
2018-10-21T18:10:37.952Z,23.40
2018-10-21T18:13:06.830Z,23.20
2018-10-21T18:15:35.914Z,23.30
2018-10-21T18:18:05.030Z,23.90
2018-10-21T18:20:34.027Z,24.00
2018-10-21T18:23:02.949Z,24.90
2018-10-21T18:25:31.964Z,25.00
2018-10-21T18:28:00.976Z,25.10
2018-10-21T18:30:29.942Z,24.00
2018-10-21T18:32:58.950Z,25.40
2018-10-21T18:35:27.779Z,26.00
2018-10-21T18:37:56.786Z,26.40
2018-10-21T18:40:25.926Z,27.20
2018-10-21T18:42:54.768Z,27.10
2018-10-21T18:45:23.640Z,26.70
2018-10-21T18:47:52.542Z,26.50
2018-10-21T18:50:21.533Z,26.70
2018-10-21T18:52:50.602Z,27.60
2018-10-21T18:55:19.794Z,27.60
2018-10-21T18:57:48.690Z,27.60
2018-10-21T19:00:18.659Z,27.60
2018-10-21T19:02:47.626Z,27.60
2018-10-21T19:05:16.675Z,27.60
2018-10-21T19:07:45.614Z,27.60
2018-10-21T19:10:15.717Z,28.80
2018-10-21T19:12:44.630Z,29.50
2018-10-21T19:15:14.070Z,30.20
2018-10-21T19:17:43.033Z,30.70
2018-10-21T19:20:13.698Z,31.10
2018-10-21T19:22:42.895Z,32.30
2018-10-21T19:25:18.467Z,32.10
2018-10-21T19:27:47.520Z,32.10
2018-10-21T19:30:16.526Z,33.00
2018-10-21T19:32:45.612Z,33.10
2018-10-21T19:35:15.516Z,33.50
2018-10-21T19:37:44.611Z,33.40
2018-10-21T19:40:14.820Z,33.30
2018-10-21T19:42:44.648Z,33.40
2018-10-21T19:45:14.248Z,34.20
2018-10-21T19:47:43.281Z,34.30
2018-10-21T19:50:13.424Z,34.10
2018-10-21T19:52:43.067Z,33.90
2018-10-21T19:55:12.372Z,33.70
2018-10-21T19:57:41.194Z,33.60
2018-10-21T20:00:13.731Z,33.50
2018-10-21T20:02:42.851Z,33.10
2018-10-21T20:05:11.741Z,33.50
2018-10-21T20:07:40.791Z,33.50
2018-10-21T20:10:11.738Z,33.80
2018-10-21T20:12:40.594Z,33.50
2018-10-21T20:15:10.591Z,33.20
2018-10-21T20:17:39.879Z,33.00
2018-10-21T20:20:09.691Z,32.90
2018-10-21T20:22:38.591Z,33.10
2018-10-21T20:25:08.445Z,33.00
2018-10-21T20:27:37.263Z,33.40
2018-10-21T20:30:08.102Z,34.10
2018-10-21T20:32:37.114Z,34.40
2018-10-21T20:35:07.696Z,34.40
2018-10-21T20:37:36.638Z,34.60
2018-10-21T20:40:06.642Z,34.80
2018-10-21T20:42:35.519Z,34.30
2018-10-21T20:45:04.615Z,34.50
2018-10-21T20:47:33.527Z,34.90
2018-10-21T20:50:02.501Z,34.70
2018-10-21T20:52:31.452Z,34.80
2018-10-21T20:55:00.396Z,34.80
2018-10-21T20:57:29.298Z,35.00
2018-10-21T20:59:58.243Z,34.60
2018-10-21T21:02:27.150Z,35.60
2018-10-21T21:04:56.072Z,36.30
2018-10-21T21:07:24.958Z,36.60
2018-10-21T21:09:53.853Z,36.40
2018-10-21T21:12:22.738Z,36.30
2018-10-21T21:14:51.550Z,36.20
2018-10-21T21:17:20.499Z,36.40
2018-10-21T21:19:49.374Z,36.30
2018-10-21T21:22:18.400Z,36.30
2018-10-21T21:24:47.255Z,36.20
2018-10-21T21:27:16.225Z,36.20
2018-10-21T21:29:45.127Z,36.20
2018-10-21T21:32:14.074Z,36.20
2018-10-21T21:34:42.925Z,36.70
2018-10-21T21:37:11.811Z,36.80
2018-10-21T21:39:40.738Z,37.00
2018-10-21T21:42:09.613Z,37.10
2018-10-21T21:44:38.482Z,37.20
2018-10-21T21:47:07.401Z,37.40
2018-10-21T21:49:36.278Z,37.30
2018-10-21T21:52:05.212Z,37.10
2018-10-21T21:54:34.148Z,37.20
2018-10-21T21:57:03.059Z,36.90
2018-10-21T21:59:32.028Z,37.20
2018-10-21T22:02:00.951Z,37.50
2018-10-21T22:04:29.891Z,37.80
2018-10-21T22:06:58.786Z,37.60
2018-10-21T22:09:27.679Z,37.80
2018-10-21T22:11:56.605Z,37.60
2018-10-21T22:14:25.460Z,37.60
2018-10-21T22:16:54.362Z,37.70
2018-10-21T22:19:23.239Z,37.60
2018-10-21T22:21:52.126Z,38.30
2018-10-21T22:24:21.014Z,38.30
2018-10-21T22:26:49.963Z,38.80
2018-10-21T22:29:19.825Z,38.80
2018-10-21T22:31:48.755Z,39.70
2018-10-21T22:34:17.731Z,38.70
2018-10-21T22:36:46.622Z,38.60
2018-10-21T22:39:16.001Z,38.70
2018-10-21T22:41:45.076Z,38.70
2018-10-21T22:44:14.642Z,38.60
2018-10-21T22:46:43.527Z,40.50
2018-10-21T22:49:12.415Z,40.60
2018-10-21T22:51:41.339Z,40.20
2018-10-21T22:54:10.383Z,41.30
2018-10-21T22:56:39.140Z,40.70
2018-10-21T22:59:08.078Z,40.70
2018-10-21T23:01:36.945Z,40.80
2018-10-21T23:04:06.046Z,40.20
2018-10-21T23:06:34.955Z,40.80
2018-10-21T23:09:05.170Z,41.90
2018-10-21T23:11:34.078Z,43.20
2018-10-21T23:14:02.985Z,43.50
2018-10-21T23:16:32.719Z,43.40
2018-10-21T23:19:19.103Z,43.00
2018-10-21T23:21:48.031Z,42.60
2018-10-21T23:24:16.982Z,42.50
2018-10-21T23:26:45.794Z,42.30
2018-10-21T23:29:14.759Z,42.40
2018-10-21T23:31:43.694Z,42.40
2018-10-21T23:34:12.701Z,41.60
2018-10-21T23:36:41.558Z,40.80
2018-10-21T23:39:10.498Z,40.00
2018-10-21T23:41:39.361Z,40.50
2018-10-21T23:44:08.269Z,40.20
2018-10-21T23:46:37.143Z,40.70
2018-10-21T23:49:07.071Z,40.00
2018-10-21T23:51:36.020Z,40.00
2018-10-21T23:54:05.093Z,40.70
2018-10-21T23:56:34.062Z,40.70
2018-10-21T23:59:03.006Z,39.80
